WMKJ/JHB METAR and TAF weather

Enter ICAO airport designator
Station Type Date Time Source
WMKJ METAR 2022/01/26 14:00 UTC NOAA

WMKJ 261400Z VRB02KT 9999 FEW020 25/22 Q1010


Station Type Date Time Source
WMKJ Decoded METAR 2022/01/26 14:00 UTC NOAA

Johore Bharu / Senai, Malaysia (WMKJ) 01-38N 103-40E 40M
Jan 26, 2022 - 09:00 AM EST / 2022.01.26 1400 UTC
Wind: Variable at 2 MPH (2 KT):0
Visibility: greater than 7 mile(s):0
Sky conditions: mostly clear
Temperature: 77 F (25 C)
Dew Point: 71 F (22 C)
Relative Humidity: 83%
Pressure (altimeter): 29.83 in. Hg (1010 hPa)
ob: WMKJ 261400Z VRB02KT 9999 FEW020 25/22 Q1010
cycle: 14

Station Type Date Time Source
WMKJ TAF 2022/01/26 12:09 UTC NOAA

TAF TAF WMKJ 261100Z 2612/2712 VRB02KT 9999 FEW022

Example: see airport list